createdAt,value
2022-10-18T00:01:25.654Z,23.2
2022-10-18T00:03:09.349Z,23.2
2022-10-18T00:04:53.067Z,23.2
2022-10-18T00:06:36.769Z,23.2
2022-10-18T00:08:20.459Z,23.2
2022-10-18T00:10:04.170Z,23.2
2022-10-18T00:11:47.865Z,23.2
2022-10-18T00:13:31.567Z,23.2
2022-10-18T00:15:15.274Z,23.2
2022-10-18T00:16:58.970Z,23.2
2022-10-18T00:18:42.683Z,23.2
2022-10-18T00:20:26.385Z,23.2
2022-10-18T00:22:10.085Z,23.2
2022-10-18T00:23:53.793Z,23.2
2022-10-18T00:25:37.481Z,23.2
2022-10-18T00:27:21.193Z,23.2
2022-10-18T00:29:04.891Z,23.2
2022-10-18T00:30:48.593Z,23.2
2022-10-18T00:32:32.294Z,23.2
2022-10-18T00:34:15.994Z,23.2
2022-10-18T00:35:59.701Z,23.1
2022-10-18T00:37:43.405Z,23.2
2022-10-18T00:39:27.100Z,23.2
2022-10-18T00:41:10.798Z,23.2
2022-10-18T00:42:54.511Z,23.2
2022-10-18T00:44:38.206Z,23.1
2022-10-18T00:46:21.917Z,23.2
2022-10-18T00:48:05.606Z,23.1
2022-10-18T00:49:49.338Z,23.1
2022-10-18T00:51:33.040Z,23.1
2022-10-18T00:53:16.717Z,23.1
2022-10-18T00:55:00.422Z,23.1
2022-10-18T00:56:44.122Z,23.1
2022-10-18T00:58:27.838Z,23.1
2022-10-18T01:00:11.526Z,23.1
2022-10-18T01:01:55.224Z,23.1
2022-10-18T01:03:38.940Z,23.1
2022-10-18T01:05:22.635Z,23.1
2022-10-18T01:07:06.331Z,23.1
2022-10-18T01:08:50.043Z,23.1
2022-10-18T01:10:33.742Z,23.1
2022-10-18T01:12:17.445Z,23.1
2022-10-18T01:14:01.145Z,23.1
2022-10-18T01:15:44.853Z,23.1
2022-10-18T01:17:28.558Z,23.1
2022-10-18T01:19:12.263Z,23.1
2022-10-18T01:20:55.952Z,23.1
2022-10-18T01:22:39.657Z,23.1
2022-10-18T01:24:23.361Z,23.1
2022-10-18T01:26:07.058Z,23.1
2022-10-18T01:27:50.771Z,23.1
2022-10-18T01:29:34.466Z,23.1
2022-10-18T01:31:18.170Z,23.1
2022-10-18T01:33:01.869Z,23.1
2022-10-18T01:34:45.585Z,23.1
2022-10-18T01:36:29.278Z,23.1
2022-10-18T01:38:12.976Z,23.1
2022-10-18T01:39:56.681Z,23.1
2022-10-18T01:41:40.403Z,23.1
2022-10-18T01:43:24.100Z,23.1
2022-10-18T01:45:07.797Z,23.1
2022-10-18T01:46:51.499Z,23.1
2022-10-18T01:48:35.197Z,23.1
2022-10-18T01:50:18.898Z,23.1
2022-10-18T01:52:02.601Z,23.1
2022-10-18T01:53:46.308Z,23.1
2022-10-18T01:55:29.998Z,23.1
2022-10-18T01:57:13.704Z,23.1
2022-10-18T01:58:57.409Z,23.1
2022-10-18T02:00:41.106Z,23.1
2022-10-18T02:02:24.811Z,23.1
2022-10-18T02:04:08.519Z,23.1
2022-10-18T02:07:35.915Z,23.1
2022-10-18T02:09:19.628Z,23.1
2022-10-18T02:11:03.333Z,23.1
2022-10-18T02:12:47.027Z,23.1
2022-10-18T02:14:30.730Z,23.1
2022-10-18T02:16:14.430Z,23.1
2022-10-18T02:17:58.139Z,23.1
2022-10-18T02:19:41.859Z,23.1
2022-10-18T02:21:25.541Z,23.1
2022-10-18T02:23:09.239Z,23.1
2022-10-18T02:24:52.954Z,23.1
2022-10-18T02:26:36.655Z,23.1
2022-10-18T02:28:20.366Z,23.1
2022-10-18T02:30:04.062Z,23.1
2022-10-18T02:31:47.760Z,23.1
2022-10-18T02:33:31.460Z,23.1
2022-10-18T02:35:15.161Z,23.1
2022-10-18T02:36:58.868Z,23.1
2022-10-18T02:38:42.569Z,23.1
2022-10-18T02:40:26.273Z,23.1
2022-10-18T02:42:09.967Z,23.1
2022-10-18T02:43:53.674Z,23.1
2022-10-18T02:45:37.381Z,23.1
2022-10-18T02:47:21.078Z,23.1
2022-10-18T02:49:04.776Z,23.1
2022-10-18T02:50:48.483Z,23.1
2022-10-18T02:52:32.182Z,23.1
2022-10-18T02:54:15.888Z,23.1
2022-10-18T02:55:59.584Z,23.1
2022-10-18T02:57:43.292Z,23.1
2022-10-18T02:59:26.996Z,23.1
2022-10-18T03:01:10.689Z,23.1
2022-10-18T03:02:54.389Z,23.1
2022-10-18T03:04:38.094Z,23.1
2022-10-18T03:06:21.801Z,23.1
2022-10-18T03:08:05.514Z,23.1
2022-10-18T03:09:49.204Z,23.1
2022-10-18T03:11:32.909Z,23.1
2022-10-18T03:13:16.609Z,23.1
2022-10-18T03:15:00.304Z,23.1
2022-10-18T03:16:44.012Z,23.1
2022-10-18T03:18:27.718Z,23.1
2022-10-18T03:20:11.420Z,23.1
2022-10-18T03:21:55.126Z,23.1
2022-10-18T03:23:38.819Z,23.1
2022-10-18T03:25:22.530Z,23.1
2022-10-18T03:27:06.236Z,23.1
2022-10-18T03:28:49.925Z,23.1
2022-10-18T03:30:33.636Z,23
2022-10-18T03:32:17.341Z,23.1
2022-10-18T03:34:01.030Z,23.1
2022-10-18T03:35:44.741Z,23.1
2022-10-18T03:37:28.445Z,23.1
2022-10-18T03:39:12.156Z,23
2022-10-18T03:40:55.851Z,23.1
2022-10-18T03:42:39.547Z,23.1
2022-10-18T03:44:23.248Z,23.1
2022-10-18T03:46:06.957Z,23
2022-10-18T03:47:50.647Z,23
2022-10-18T03:49:34.371Z,23
2022-10-18T03:51:18.056Z,23
2022-10-18T03:53:01.761Z,23
2022-10-18T03:54:45.470Z,23
2022-10-18T03:56:29.164Z,23.1
2022-10-18T03:58:12.872Z,23.1
2022-10-18T03:59:56.584Z,23.1
2022-10-18T04:01:40.270Z,23.1
2022-10-18T04:03:23.978Z,23.1
2022-10-18T04:05:07.686Z,23.1
2022-10-18T04:06:51.376Z,23
2022-10-18T04:08:35.101Z,23
2022-10-18T04:10:18.782Z,23
2022-10-18T04:13:46.195Z,23
2022-10-18T04:15:29.896Z,23
2022-10-18T04:17:13.604Z,23
2022-10-18T04:18:57.301Z,23
2022-10-18T04:20:41.017Z,23
2022-10-18T04:22:24.706Z,23
2022-10-18T04:24:08.408Z,23
2022-10-18T04:25:52.110Z,23
2022-10-18T04:27:35.819Z,23
2022-10-18T04:29:19.534Z,23
2022-10-18T04:31:03.225Z,23
2022-10-18T04:32:46.946Z,23
2022-10-18T04:34:30.637Z,23
2022-10-18T04:36:14.322Z,23
2022-10-18T04:37:58.029Z,23
2022-10-18T04:39:41.727Z,23
2022-10-18T04:43:09.132Z,23
2022-10-18T04:44:52.833Z,23
2022-10-18T04:46:36.548Z,23
2022-10-18T04:48:20.244Z,23
2022-10-18T04:50:03.947Z,23
2022-10-18T04:51:47.658Z,23
2022-10-18T04:53:31.367Z,23
2022-10-18T04:55:15.049Z,23
2022-10-18T04:56:58.752Z,23
2022-10-18T04:58:42.450Z,23
2022-10-18T05:00:26.162Z,23
2022-10-18T05:02:09.882Z,23
2022-10-18T05:03:53.560Z,23
2022-10-18T05:05:37.268Z,23
2022-10-18T05:07:20.964Z,23
2022-10-18T05:09:04.670Z,23
2022-10-18T05:10:48.376Z,23
2022-10-18T05:12:32.074Z,23
2022-10-18T05:14:15.778Z,23
2022-10-18T05:15:59.480Z,23
2022-10-18T05:17:43.209Z,23
2022-10-18T05:19:26.893Z,23
2022-10-18T05:21:10.585Z,23
2022-10-18T05:22:54.430Z,23
2022-10-18T05:24:37.997Z,23
2022-10-18T05:26:21.696Z,23
2022-10-18T05:28:05.418Z,23
2022-10-18T05:29:49.122Z,23
2022-10-18T05:31:32.801Z,23
2022-10-18T05:33:16.510Z,23
2022-10-18T05:35:00.233Z,23
2022-10-18T05:36:43.922Z,23
2022-10-18T05:38:27.717Z,23
2022-10-18T05:40:11.365Z,23
2022-10-18T05:41:55.026Z,23
2022-10-18T05:43:38.726Z,23
2022-10-18T05:45:22.420Z,23
2022-10-18T05:47:06.129Z,23.1
2022-10-18T05:48:49.833Z,23.1
2022-10-18T05:50:33.535Z,23
2022-10-18T05:52:17.238Z,23
2022-10-18T05:54:00.954Z,23
2022-10-18T05:55:44.643Z,23
2022-10-18T05:57:28.353Z,23
2022-10-18T05:59:12.049Z,23
2022-10-18T06:00:55.749Z,23
2022-10-18T06:02:39.458Z,23
2022-10-18T06:04:23.152Z,23.1
2022-10-18T06:06:06.903Z,23.1
2022-10-18T06:07:50.560Z,23
2022-10-18T06:09:34.276Z,23.1
2022-10-18T06:11:17.964Z,23
2022-10-18T06:13:01.668Z,23.1
2022-10-18T06:14:45.372Z,23.1
2022-10-18T06:16:29.084Z,23.1
2022-10-18T06:18:12.774Z,23.1
2022-10-18T06:19:56.480Z,23.1
2022-10-18T06:21:40.191Z,23.1
2022-10-18T06:23:23.878Z,23.1
2022-10-18T06:25:07.594Z,23.1
2022-10-18T06:26:51.401Z,23.1
2022-10-18T06:28:34.986Z,23.1
2022-10-18T06:30:18.703Z,23.1
2022-10-18T06:32:02.392Z,23.1
2022-10-18T06:33:46.098Z,23.1
2022-10-18T06:35:29.806Z,23.1
2022-10-18T06:37:13.498Z,23.1
2022-10-18T06:38:57.204Z,23.1
2022-10-18T06:40:40.916Z,23.1
2022-10-18T06:42:24.603Z,23.1
2022-10-18T06:44:08.313Z,23.1
2022-10-18T06:45:52.011Z,23.1
2022-10-18T06:47:35.714Z,23.1
2022-10-18T06:49:19.416Z,23.1
2022-10-18T06:51:03.124Z,23.1
2022-10-18T06:52:46.825Z,23.1
2022-10-18T06:54:30.523Z,23.1
2022-10-18T06:56:14.228Z,23.1
2022-10-18T06:57:57.929Z,23.1
2022-10-18T06:59:41.629Z,23.1
2022-10-18T07:01:25.333Z,23.1
2022-10-18T07:03:09.098Z,23.1
2022-10-18T07:04:52.745Z,23.1
2022-10-18T07:06:36.502Z,23.1
2022-10-18T07:08:20.148Z,23.1
2022-10-18T07:10:03.855Z,23.1
2022-10-18T07:11:47.550Z,23.1
2022-10-18T07:13:31.256Z,23.1
2022-10-18T07:15:14.995Z,23.1
2022-10-18T07:16:58.664Z,23.1
2022-10-18T07:18:42.366Z,23.1
2022-10-18T07:20:26.075Z,23.1
2022-10-18T07:22:09.775Z,23.1
2022-10-18T07:23:53.484Z,23.1
2022-10-18T07:25:37.178Z,23.1
2022-10-18T07:27:20.883Z,23.1
2022-10-18T07:29:04.577Z,23.1
2022-10-18T07:30:48.296Z,23.1
2022-10-18T07:32:31.987Z,23.1
2022-10-18T07:34:15.701Z,23.1
2022-10-18T07:35:59.387Z,23.1
2022-10-18T07:37:43.092Z,23.1
2022-10-18T07:39:26.794Z,23.1
2022-10-18T07:41:10.534Z,23.1
2022-10-18T07:42:54.197Z,23.1
2022-10-18T07:44:37.896Z,23.1
2022-10-18T07:46:21.621Z,23.1
2022-10-18T07:48:05.306Z,23.1
2022-10-18T07:49:49.014Z,23.1
2022-10-18T07:51:32.710Z,23.1
2022-10-18T07:53:16.410Z,23.1
2022-10-18T07:55:00.117Z,23.1
2022-10-18T07:56:43.842Z,23.1
2022-10-18T07:58:27.522Z,23.1
2022-10-18T08:00:11.225Z,23.1
2022-10-18T08:01:54.922Z,23.1
2022-10-18T08:03:38.626Z,23.2
2022-10-18T08:05:22.330Z,23.2
2022-10-18T08:07:06.027Z,23.2
2022-10-18T08:08:49.736Z,23.2
2022-10-18T08:10:33.439Z,23.2
2022-10-18T08:12:17.139Z,23.2
2022-10-18T08:14:00.843Z,23.2
2022-10-18T08:15:44.535Z,23.2
2022-10-18T08:17:28.244Z,23.1
2022-10-18T08:19:11.943Z,23.1
2022-10-18T08:20:55.640Z,23.1
2022-10-18T08:22:39.346Z,23.2
2022-10-18T08:24:23.049Z,23.2
2022-10-18T08:26:06.755Z,23.2
2022-10-18T08:27:50.452Z,23.2
2022-10-18T08:29:34.171Z,23.2
2022-10-18T08:31:17.983Z,23.2
2022-10-18T08:33:01.715Z,23.2
2022-10-18T08:34:45.378Z,23.2
2022-10-18T08:36:29.091Z,23.2
2022-10-18T08:38:12.808Z,23.2
2022-10-18T08:39:56.537Z,23.2
2022-10-18T08:41:40.160Z,23.2
2022-10-18T08:43:23.775Z,23.2
2022-10-18T08:45:07.622Z,23.2
2022-10-18T08:46:51.329Z,23.2
2022-10-18T08:48:34.888Z,23.2
2022-10-18T08:50:18.616Z,23.2
2022-10-18T08:52:02.427Z,23.2
2022-10-18T08:53:46.136Z,23.2
2022-10-18T08:55:29.833Z,23.2
2022-10-18T08:57:13.540Z,23.2
2022-10-18T08:58:57.244Z,23.2
2022-10-18T09:00:40.941Z,23.2
2022-10-18T09:02:24.669Z,23.3
2022-10-18T09:04:08.208Z,23.3
2022-10-18T09:05:52.027Z,23.2
2022-10-18T09:07:35.761Z,23.3
2022-10-18T09:09:19.309Z,23.3
2022-10-18T09:11:03.022Z,23.3
2022-10-18T09:12:46.782Z,23.3
2022-10-18T09:14:30.442Z,23.3
2022-10-18T09:16:14.150Z,23.3
2022-10-18T09:17:57.857Z,23.3
2022-10-18T09:19:41.630Z,23.3
2022-10-18T09:21:25.227Z,23.3
2022-10-18T09:23:09.022Z,23.4
2022-10-18T09:24:52.726Z,23.4
2022-10-18T09:26:36.442Z,23.4
2022-10-18T09:28:20.081Z,23.4
2022-10-18T09:30:03.743Z,23.4
2022-10-18T09:31:47.473Z,23.4
2022-10-18T09:33:31.243Z,23.4
2022-10-18T09:35:14.846Z,23.4
2022-10-18T09:36:58.559Z,23.4
2022-10-18T09:38:42.287Z,23.5
2022-10-18T09:40:25.961Z,23.5
2022-10-18T09:42:09.677Z,23.5
2022-10-18T09:43:53.395Z,23.5
2022-10-18T09:45:37.150Z,23.5
2022-10-18T09:47:20.770Z,23.5
2022-10-18T09:49:04.470Z,23.5
2022-10-18T09:50:48.172Z,23.5
2022-10-18T09:52:31.985Z,23.5
2022-10-18T09:54:15.669Z,23.5
2022-10-18T09:55:59.286Z,23.5
2022-10-18T09:57:43.045Z,23.5
2022-10-18T09:59:26.686Z,23.5
2022-10-18T10:01:10.390Z,23.5
2022-10-18T10:02:54.148Z,23.5
2022-10-18T10:04:37.823Z,23.5
2022-10-18T10:06:21.495Z,23.5
2022-10-18T10:08:05.231Z,23.5
2022-10-18T10:09:48.963Z,23.5
2022-10-18T10:11:32.601Z,23.5
2022-10-18T10:13:16.302Z,23.5
2022-10-18T10:15:00.013Z,23.5
2022-10-18T10:16:43.701Z,23.5
2022-10-18T10:18:27.438Z,23.5
2022-10-18T10:20:11.113Z,23.5
2022-10-18T10:21:54.803Z,23.5
2022-10-18T10:23:38.520Z,23.5
2022-10-18T10:25:22.219Z,23.6
2022-10-18T10:27:05.941Z,23.6
2022-10-18T10:28:49.632Z,23.6
2022-10-18T10:30:33.326Z,23.6
2022-10-18T10:32:17.021Z,23.6
2022-10-18T10:34:00.732Z,23.6
2022-10-18T10:35:44.452Z,23.6
2022-10-18T10:37:28.164Z,23.6
2022-10-18T10:39:11.863Z,23.7
2022-10-18T10:40:55.563Z,23.7
2022-10-18T10:42:39.304Z,23.7
2022-10-18T10:44:23.015Z,23.7
2022-10-18T10:46:06.667Z,23.7
2022-10-18T10:47:50.369Z,23.7
2022-10-18T10:49:34.052Z,23.7
2022-10-18T10:51:17.809Z,23.7
2022-10-18T10:53:01.463Z,23.6
2022-10-18T10:54:45.155Z,23.6
2022-10-18T10:56:28.884Z,23.6
2022-10-18T10:58:12.657Z,23.6
2022-10-18T10:59:56.265Z,23.6
2022-10-18T11:01:39.967Z,23.6
2022-10-18T11:03:23.679Z,23.6
2022-10-18T11:05:07.375Z,23.6
2022-10-18T11:06:51.110Z,23.6
2022-10-18T11:08:34.911Z,23.6
2022-10-18T11:10:18.480Z,23.6
2022-10-18T11:12:02.187Z,23.6
2022-10-18T11:13:45.924Z,23.6
2022-10-18T11:15:29.588Z,23.6
2022-10-18T11:17:13.285Z,23.6
2022-10-18T11:18:56.990Z,23.6
2022-10-18T11:20:40.694Z,23.6
2022-10-18T11:22:24.444Z,23.6
2022-10-18T11:24:08.094Z,23.6
2022-10-18T11:25:51.798Z,23.6
2022-10-18T11:27:35.499Z,23.6
2022-10-18T11:29:19.212Z,23.6
2022-10-18T11:31:02.911Z,23.7
2022-10-18T11:32:46.694Z,23.6
2022-10-18T11:34:30.314Z,23.7
2022-10-18T11:36:14.009Z,23.7
2022-10-18T11:37:57.713Z,23.7
2022-10-18T11:39:41.423Z,23.7
2022-10-18T11:41:25.159Z,23.7
2022-10-18T11:43:08.824Z,23.8
2022-10-18T11:44:52.567Z,23.8
2022-10-18T11:46:36.251Z,23.8
2022-10-18T11:48:19.931Z,23.8
2022-10-18T11:50:03.671Z,23.8
2022-10-18T11:51:47.334Z,23.8
2022-10-18T11:53:31.042Z,23.7
2022-10-18T11:55:14.739Z,23.7
2022-10-18T11:56:58.437Z,23.7
2022-10-18T11:58:42.140Z,23.7
2022-10-18T12:00:25.846Z,23.7
2022-10-18T12:02:09.549Z,23.7
2022-10-18T12:03:53.246Z,23.7
2022-10-18T12:05:36.954Z,23.7
2022-10-18T12:07:20.674Z,23.8
2022-10-18T12:09:04.354Z,23.8
2022-10-18T12:10:48.066Z,23.8
2022-10-18T12:12:31.764Z,23.8
2022-10-18T12:14:15.474Z,23.8
2022-10-18T12:15:59.169Z,23.8
2022-10-18T12:17:42.899Z,23.8
2022-10-18T12:19:26.573Z,23.8
2022-10-18T12:21:10.279Z,23.8
2022-10-18T12:22:53.989Z,23.8
2022-10-18T12:24:37.676Z,23.8
2022-10-18T12:26:21.385Z,23.8
2022-10-18T12:28:05.084Z,23.8
2022-10-18T12:29:48.787Z,23.9
2022-10-18T12:31:32.486Z,23.9
2022-10-18T12:33:16.193Z,23.9
2022-10-18T12:34:59.933Z,23.9
2022-10-18T12:36:43.594Z,23.9
2022-10-18T12:38:27.310Z,23.9
2022-10-18T12:40:10.997Z,24
2022-10-18T12:41:54.716Z,24
2022-10-18T12:43:38.418Z,24
2022-10-18T12:45:22.109Z,24
2022-10-18T12:47:05.816Z,24
2022-10-18T12:48:49.510Z,24
2022-10-18T12:50:33.208Z,24
2022-10-18T12:52:16.913Z,24
2022-10-18T12:54:00.621Z,24
2022-10-18T12:55:44.346Z,24.1
2022-10-18T12:57:28.075Z,24.1
2022-10-18T12:59:11.761Z,24.1
2022-10-18T13:00:55.487Z,24.1
2022-10-18T13:02:39.175Z,24.1
2022-10-18T13:04:22.827Z,24.1
2022-10-18T13:06:06.534Z,24.1
2022-10-18T13:07:50.237Z,24.1
2022-10-18T13:09:33.964Z,24.1
2022-10-18T13:11:17.643Z,24.2
2022-10-18T13:13:01.349Z,24.2
2022-10-18T13:14:45.056Z,24.2
2022-10-18T13:16:28.768Z,24.2
2022-10-18T13:18:12.458Z,24.2
2022-10-18T13:19:56.150Z,24.2
2022-10-18T13:21:39.865Z,24.2
2022-10-18T13:23:23.557Z,24.2
2022-10-18T13:25:07.276Z,24.3
2022-10-18T13:26:50.991Z,24.3
2022-10-18T13:28:34.672Z,24.3
2022-10-18T13:30:18.366Z,24.3
2022-10-18T13:32:02.081Z,24.3
2022-10-18T13:33:45.886Z,24.3
2022-10-18T13:35:29.483Z,24.3
2022-10-18T13:37:13.175Z,24.3
2022-10-18T13:38:56.907Z,24.3
2022-10-18T13:40:40.585Z,24.4
2022-10-18T13:42:24.285Z,24.4
2022-10-18T13:44:07.999Z,24.4
2022-10-18T13:45:51.681Z,24.4
2022-10-18T13:47:35.397Z,24.4
2022-10-18T13:49:19.099Z,24.4
2022-10-18T13:51:02.810Z,24.4
2022-10-18T13:52:46.497Z,24.4
2022-10-18T13:54:30.204Z,24.5
2022-10-18T13:56:13.899Z,24.5
2022-10-18T13:57:57.606Z,24.5
2022-10-18T13:59:41.311Z,24.5
2022-10-18T14:01:25.009Z,24.5
2022-10-18T14:03:08.716Z,24.5
2022-10-18T14:04:52.427Z,24.5
2022-10-18T14:06:36.138Z,24.6
2022-10-18T14:08:19.933Z,24.6
2022-10-18T14:10:03.546Z,24.6
2022-10-18T14:11:47.260Z,24.6
2022-10-18T14:13:30.956Z,24.6
2022-10-18T14:15:14.647Z,24.6
2022-10-18T14:16:58.340Z,24.6
2022-10-18T14:18:42.043Z,24.6
2022-10-18T14:20:25.742Z,24.6
2022-10-18T14:22:09.477Z,24.5
2022-10-18T14:23:53.170Z,24.5
2022-10-18T14:25:36.853Z,24.5
2022-10-18T14:27:20.551Z,24.5
2022-10-18T14:29:04.285Z,24.5
2022-10-18T14:30:47.957Z,24.5
2022-10-18T14:32:31.702Z,24.5
2022-10-18T14:34:15.407Z,24.4
2022-10-18T14:35:59.074Z,24.4
2022-10-18T14:37:42.809Z,24.4
2022-10-18T14:39:26.485Z,24.3
2022-10-18T14:41:10.177Z,24.3
2022-10-18T14:42:53.921Z,24.3
2022-10-18T14:44:37.579Z,24.3
2022-10-18T14:46:21.286Z,24.2
2022-10-18T14:48:04.983Z,24.2
2022-10-18T14:49:48.697Z,24.2
2022-10-18T14:51:32.391Z,24.2
2022-10-18T14:53:16.096Z,24.2
2022-10-18T14:54:59.808Z,24.2
2022-10-18T14:56:43.525Z,24.2
2022-10-18T14:58:27.203Z,24.3
2022-10-18T15:00:10.908Z,24.3
2022-10-18T15:01:54.609Z,24.4
2022-10-18T15:03:38.347Z,24.4
2022-10-18T15:05:22.009Z,24.4
2022-10-18T15:07:05.706Z,24.5
2022-10-18T15:08:49.429Z,24.5
2022-10-18T15:10:33.106Z,24.5
2022-10-18T15:12:16.813Z,24.6
2022-10-18T15:14:00.520Z,24.6
2022-10-18T15:15:44.225Z,24.6
2022-10-18T15:17:27.940Z,24.6
2022-10-18T15:19:11.616Z,24.6
2022-10-18T15:20:55.339Z,24.5
2022-10-18T15:22:39.034Z,24.5
2022-10-18T15:24:22.721Z,24.4
2022-10-18T15:26:06.427Z,24.3
2022-10-18T15:27:50.131Z,24.3
2022-10-18T15:29:33.843Z,24.3
2022-10-18T15:31:17.532Z,24.3
2022-10-18T15:33:01.244Z,24.3
2022-10-18T15:34:44.937Z,24.3
2022-10-18T15:36:28.775Z,24.3
2022-10-18T15:38:12.342Z,24.3
2022-10-18T15:39:56.066Z,24.2
2022-10-18T15:41:39.755Z,24.2
2022-10-18T15:43:23.446Z,24.2
2022-10-18T15:45:07.151Z,24.2
2022-10-18T15:46:50.866Z,24.2
2022-10-18T15:48:34.556Z,24.1
2022-10-18T15:50:18.288Z,24.1
2022-10-18T15:52:01.977Z,24.1
2022-10-18T15:53:45.670Z,24.1
2022-10-18T15:55:29.365Z,24
2022-10-18T15:57:13.067Z,24
2022-10-18T15:58:56.770Z,24
2022-10-18T16:00:40.479Z,24
2022-10-18T16:02:24.172Z,24
2022-10-18T16:04:07.879Z,24
2022-10-18T16:05:51.574Z,24
2022-10-18T16:07:35.277Z,24
2022-10-18T16:09:18.987Z,24.1
2022-10-18T16:11:02.676Z,24
2022-10-18T16:12:46.460Z,24
2022-10-18T16:14:30.090Z,24
2022-10-18T16:16:13.831Z,24
2022-10-18T16:17:57.492Z,24
2022-10-18T16:19:41.194Z,24
2022-10-18T16:21:24.898Z,24
2022-10-18T16:23:08.604Z,24
2022-10-18T16:24:52.324Z,24
2022-10-18T16:26:36.006Z,24
2022-10-18T16:28:19.712Z,24
2022-10-18T16:30:03.404Z,24
2022-10-18T16:31:47.109Z,24
2022-10-18T16:33:30.816Z,24
2022-10-18T16:35:14.514Z,24
2022-10-18T16:36:58.325Z,24
2022-10-18T16:38:41.918Z,24
2022-10-18T16:40:25.624Z,24
2022-10-18T16:42:09.416Z,24
2022-10-18T16:43:53.036Z,24
2022-10-18T16:45:36.728Z,23.9
2022-10-18T16:47:20.504Z,23.9
2022-10-18T16:49:04.273Z,23.9
2022-10-18T16:50:47.839Z,23.9
2022-10-18T16:52:31.541Z,23.9
2022-10-18T16:54:15.274Z,23.9
2022-10-18T16:55:58.980Z,23.9
2022-10-18T16:57:42.648Z,23.9
2022-10-18T16:59:26.530Z,23.9
2022-10-18T17:01:10.058Z,23.9
2022-10-18T17:02:53.792Z,23.9
2022-10-18T17:04:37.465Z,23.9
2022-10-18T17:06:21.164Z,23.9
2022-10-18T17:08:04.861Z,23.9
2022-10-18T17:09:48.572Z,23.9
2022-10-18T17:11:32.265Z,23.9
2022-10-18T17:13:15.971Z,23.9
2022-10-18T17:14:59.675Z,23.9
2022-10-18T17:16:43.373Z,23.9
2022-10-18T17:18:27.076Z,23.9
2022-10-18T17:20:10.866Z,23.9
2022-10-18T17:21:54.485Z,23.9
2022-10-18T17:23:38.186Z,23.9
2022-10-18T17:25:21.949Z,23.9
2022-10-18T17:27:05.674Z,23.9
2022-10-18T17:28:49.298Z,23.9
2022-10-18T17:30:32.990Z,23.8
2022-10-18T17:32:16.693Z,23.8
2022-10-18T17:34:00.399Z,23.8
2022-10-18T17:35:44.118Z,23.8
2022-10-18T17:37:27.816Z,23.8
2022-10-18T17:39:11.503Z,23.8
2022-10-18T17:40:55.214Z,23.8
2022-10-18T17:42:38.915Z,23.8
2022-10-18T17:44:22.613Z,23.8
2022-10-18T17:46:06.356Z,23.8
2022-10-18T17:47:50.018Z,23.8
2022-10-18T17:49:33.720Z,23.8
2022-10-18T17:51:17.420Z,23.8
2022-10-18T17:53:01.184Z,23.8
2022-10-18T17:54:44.846Z,23.8
2022-10-18T17:56:28.523Z,23.8
2022-10-18T17:58:12.218Z,23.8
2022-10-18T17:59:55.926Z,23.8
2022-10-18T18:01:39.715Z,23.8
2022-10-18T18:03:23.332Z,23.8
2022-10-18T18:05:07.035Z,23.8
2022-10-18T18:06:50.750Z,23.8
2022-10-18T18:08:34.439Z,23.8
2022-10-18T18:10:18.141Z,23.8
2022-10-18T18:12:01.841Z,23.8
2022-10-18T18:13:45.541Z,23.8
2022-10-18T18:15:29.241Z,23.8
2022-10-18T18:17:12.964Z,23.8
2022-10-18T18:18:56.655Z,23.8
2022-10-18T18:20:40.359Z,23.8
2022-10-18T18:22:24.057Z,23.8
2022-10-18T18:24:07.762Z,23.8
2022-10-18T18:25:51.469Z,23.8
2022-10-18T18:27:35.169Z,23.8
2022-10-18T18:29:18.901Z,23.8
2022-10-18T18:31:02.571Z,23.8
2022-10-18T18:32:46.283Z,23.7
2022-10-18T18:34:29.970Z,23.8
2022-10-18T18:36:13.676Z,23.8
2022-10-18T18:37:57.400Z,23.8
2022-10-18T18:39:41.116Z,23.8
2022-10-18T18:41:24.779Z,23.7
2022-10-18T18:43:08.490Z,23.8
2022-10-18T18:44:52.188Z,23.7
2022-10-18T18:46:35.893Z,23.8
2022-10-18T18:48:19.586Z,23.7
2022-10-18T18:50:03.305Z,23.8
2022-10-18T18:51:47.018Z,23.7
2022-10-18T18:53:30.699Z,23.7
2022-10-18T18:55:14.405Z,23.7
2022-10-18T18:56:58.099Z,23.7
2022-10-18T18:58:41.806Z,23.7
2022-10-18T19:00:25.514Z,23.7
2022-10-18T19:02:09.209Z,23.7
2022-10-18T19:03:52.917Z,23.7
2022-10-18T19:05:36.613Z,23.7
2022-10-18T19:07:20.320Z,23.7
2022-10-18T19:09:04.029Z,23.7
2022-10-18T19:10:47.724Z,23.7
2022-10-18T19:12:31.427Z,23.7
2022-10-18T19:14:15.144Z,23.7
2022-10-18T19:15:58.832Z,23.7
2022-10-18T19:17:42.541Z,23.7
2022-10-18T19:19:26.230Z,23.7
2022-10-18T19:21:09.936Z,23.7
2022-10-18T19:22:53.640Z,23.7
2022-10-18T19:24:37.332Z,23.7
2022-10-18T19:26:21.041Z,23.7
2022-10-18T19:28:04.746Z,23.7
2022-10-18T19:29:48.448Z,23.7
2022-10-18T19:31:32.155Z,23.7
2022-10-18T19:33:15.855Z,23.7
2022-10-18T19:34:59.558Z,23.7
2022-10-18T19:36:43.269Z,23.7
2022-10-18T19:38:26.962Z,23.7
2022-10-18T19:40:10.679Z,23.7
2022-10-18T19:41:54.393Z,23.7
2022-10-18T19:43:38.076Z,23.7
2022-10-18T19:45:21.802Z,23.7
2022-10-18T19:47:05.536Z,23.7
2022-10-18T19:48:49.182Z,23.8
2022-10-18T19:50:32.892Z,23.8
2022-10-18T19:52:16.641Z,23.8
2022-10-18T19:54:00.330Z,23.8
2022-10-18T19:55:44.078Z,23.8
2022-10-18T19:57:27.782Z,23.8
2022-10-18T19:59:11.451Z,23.8
2022-10-18T20:00:55.131Z,23.8
2022-10-18T20:02:38.901Z,23.8
2022-10-18T20:04:22.538Z,23.8
2022-10-18T20:06:06.200Z,23.8
2022-10-18T20:07:50.016Z,23.8
2022-10-18T20:09:33.663Z,23.8
2022-10-18T20:11:17.347Z,23.8
2022-10-18T20:13:01.030Z,23.8
2022-10-18T20:14:44.712Z,23.8
2022-10-18T20:16:28.432Z,23.8
2022-10-18T20:18:12.118Z,23.8
2022-10-18T20:19:55.838Z,23.8
2022-10-18T20:21:39.568Z,23.8
2022-10-18T20:23:23.268Z,23.8
2022-10-18T20:25:06.926Z,23.8
2022-10-18T20:26:50.629Z,23.8
2022-10-18T20:28:34.337Z,23.8
2022-10-18T20:30:18.101Z,23.8
2022-10-18T20:32:01.811Z,23.7
2022-10-18T20:33:45.432Z,23.7
2022-10-18T20:35:29.150Z,23.7
2022-10-18T20:37:12.837Z,23.7
2022-10-18T20:38:56.541Z,23.7
2022-10-18T20:40:40.315Z,23.7
2022-10-18T20:42:23.956Z,23.7
2022-10-18T20:44:07.656Z,23.7
2022-10-18T20:45:51.376Z,23.7
2022-10-18T20:47:35.134Z,23.7
2022-10-18T20:49:18.821Z,23.7
2022-10-18T20:51:02.465Z,23.7
2022-10-18T20:52:46.232Z,23.7
2022-10-18T20:54:29.874Z,23.7
2022-10-18T20:56:13.570Z,23.7
2022-10-18T20:57:57.288Z,23.7
2022-10-18T20:59:41.006Z,23.7
2022-10-18T21:01:24.735Z,23.7
2022-10-18T21:03:08.395Z,23.7
2022-10-18T21:04:52.112Z,23.7
2022-10-18T21:06:35.780Z,23.7
2022-10-18T21:08:19.480Z,23.7
2022-10-18T21:10:03.220Z,23.7
2022-10-18T21:11:46.978Z,23.7
2022-10-18T21:13:30.586Z,23.6
2022-10-18T21:15:14.308Z,23.7
2022-10-18T21:16:57.994Z,23.7
2022-10-18T21:18:41.691Z,23.7
2022-10-18T21:20:25.395Z,23.7
2022-10-18T21:22:09.154Z,23.7
2022-10-18T21:23:52.813Z,23.7
2022-10-18T21:25:36.508Z,23.7
2022-10-18T21:27:20.310Z,23.7
2022-10-18T21:29:03.922Z,23.7
2022-10-18T21:30:47.608Z,23.7
2022-10-18T21:32:31.311Z,23.7
2022-10-18T21:34:15.029Z,23.7
2022-10-18T21:35:58.721Z,23.7
2022-10-18T21:37:42.429Z,23.7
2022-10-18T21:39:26.121Z,23.7
2022-10-18T21:41:09.857Z,23.7
2022-10-18T21:42:53.576Z,23.7
2022-10-18T21:44:37.221Z,23.7
2022-10-18T21:46:20.929Z,23.7
2022-10-18T21:48:04.707Z,23.7
2022-10-18T21:49:48.401Z,23.7
2022-10-18T21:51:32.042Z,23.7
2022-10-18T21:53:15.746Z,23.7
2022-10-18T21:54:59.451Z,23.7
2022-10-18T21:56:43.153Z,23.6
2022-10-18T21:58:26.872Z,23.6
2022-10-18T22:00:10.621Z,23.7
2022-10-18T22:01:54.320Z,23.6
2022-10-18T22:03:37.975Z,23.6
2022-10-18T22:05:21.670Z,23.6
2022-10-18T22:07:05.375Z,23.6
2022-10-18T22:08:49.068Z,23.6
2022-10-18T22:10:32.769Z,23.6
2022-10-18T22:12:16.472Z,23.6
2022-10-18T22:14:00.176Z,23.6
2022-10-18T22:15:43.867Z,23.6
2022-10-18T22:17:27.578Z,23.6
2022-10-18T22:19:11.334Z,23.6
2022-10-18T22:20:54.980Z,23.6
2022-10-18T22:22:38.682Z,23.6
2022-10-18T22:24:22.492Z,23.6
2022-10-18T22:26:06.088Z,23.6
2022-10-18T22:27:49.793Z,23.6
2022-10-18T22:29:33.492Z,23.6
2022-10-18T22:31:17.195Z,23.6
2022-10-18T22:33:00.903Z,23.6
2022-10-18T22:34:44.598Z,23.6
2022-10-18T22:36:28.302Z,23.6
2022-10-18T22:38:12.041Z,23.6
2022-10-18T22:39:55.711Z,23.6
2022-10-18T22:41:39.414Z,23.6
2022-10-18T22:43:23.129Z,23.6
2022-10-18T22:45:06.814Z,23.6
2022-10-18T22:46:50.519Z,23.6
2022-10-18T22:48:34.223Z,23.6
2022-10-18T22:50:17.919Z,23.6
2022-10-18T22:52:01.662Z,23.6
2022-10-18T22:53:45.326Z,23.6
2022-10-18T22:55:29.027Z,23.6
2022-10-18T22:57:12.726Z,23.6
2022-10-18T22:58:56.427Z,23.6
2022-10-18T23:00:40.133Z,23.6
2022-10-18T23:02:23.863Z,23.6
2022-10-18T23:04:07.555Z,23.6
2022-10-18T23:05:51.247Z,23.6
2022-10-18T23:07:34.943Z,23.6
2022-10-18T23:09:18.668Z,23.6
2022-10-18T23:11:02.347Z,23.6
2022-10-18T23:12:46.064Z,23.6
2022-10-18T23:14:29.750Z,23.6
2022-10-18T23:16:13.466Z,23.6
2022-10-18T23:17:57.163Z,23.6